createdAt,value
2023-03-25T00:00:58.074Z,8.52
2023-03-25T00:03:29.473Z,6.13
2023-03-25T00:06:03.521Z,8.25
2023-03-25T00:08:34.640Z,6.68
2023-03-25T00:11:08.579Z,9.77
2023-03-25T00:13:40.755Z,11.60
2023-03-25T00:16:13.110Z,7.38
2023-03-25T00:18:44.304Z,8.23
2023-03-25T00:21:19.187Z,7.32
2023-03-25T00:23:51.674Z,9.35
2023-03-25T00:26:23.977Z,8.70
2023-03-25T00:28:58.113Z,7.20
2023-03-25T00:31:30.571Z,5.93
2023-03-25T00:34:04.182Z,6.18
2023-03-25T00:36:40.300Z,9.18
2023-03-25T00:39:13.446Z,8.68
2023-03-25T00:41:44.979Z,5.88
2023-03-25T00:44:17.584Z,7.15
2023-03-25T00:46:48.713Z,8.32
2023-03-25T00:49:19.713Z,4.88
2023-03-25T00:51:54.282Z,4.45
2023-03-25T00:54:25.528Z,10.55
2023-03-25T00:56:56.999Z,8.52
2023-03-25T00:59:33.942Z,13.35
2023-03-25T01:02:07.355Z,8.70
2023-03-25T01:04:41.525Z,10.57
2023-03-25T01:07:17.475Z,8.77
2023-03-25T01:09:49.233Z,6.30
2023-03-25T01:12:21.150Z,6.93
2023-03-25T01:14:52.043Z,10.27
2023-03-25T01:17:23.252Z,6.82
2023-03-25T01:19:54.301Z,2.75
2023-03-25T01:22:27.809Z,9.45
2023-03-25T01:24:58.769Z,5.82
2023-03-25T01:27:30.777Z,5.60
2023-03-25T01:30:01.922Z,9.38
2023-03-25T01:32:33.022Z,6.50
2023-03-25T01:35:05.336Z,7.45
2023-03-25T01:37:39.097Z,6.45
2023-03-25T01:40:11.897Z,6.88
2023-03-25T01:42:43.123Z,5.57
2023-03-25T01:45:23.456Z,6.43
2023-03-25T01:48:06.570Z,7.55
2023-03-25T01:50:40.231Z,8.45
2023-03-25T01:53:15.062Z,8.13
2023-03-25T01:55:48.153Z,6.05
2023-03-25T01:58:22.317Z,8.68
2023-03-25T02:00:56.011Z,11.07
2023-03-25T02:03:28.157Z,13.68
2023-03-25T02:06:04.001Z,11.70
2023-03-25T02:08:41.942Z,12.60
2023-03-25T02:11:13.899Z,13.85
2023-03-25T02:13:45.922Z,6.65
2023-03-25T02:16:32.464Z,8.25
2023-03-25T02:19:15.334Z,12.17
2023-03-25T02:22:12.173Z,9.18
2023-03-25T02:25:08.518Z,11.35
2023-03-25T02:27:55.897Z,10.98
2023-03-25T02:30:53.684Z,14.75
2023-03-25T02:36:49.095Z,13.00
2023-03-25T02:39:30.389Z,13.10
2023-03-25T02:42:07.796Z,17.45
2023-03-25T02:44:46.167Z,12.50
2023-03-25T02:47:21.414Z,11.00
2023-03-25T02:49:57.013Z,15.07
2023-03-25T02:52:31.723Z,13.57
2023-03-25T02:55:10.672Z,12.68
2023-03-25T02:57:44.511Z,11.15
2023-03-25T03:00:19.000Z,18.85
2023-03-25T03:03:00.842Z,11.35
2023-03-25T03:05:36.871Z,13.95
2023-03-25T03:08:26.848Z,15.00
2023-03-25T03:11:07.788Z,13.15
2023-03-25T03:13:51.340Z,17.80
2023-03-25T03:16:31.211Z,20.90
2023-03-25T03:19:10.218Z,27.95
2023-03-25T03:21:46.574Z,21.02
2023-03-25T03:24:23.357Z,15.15
2023-03-25T03:29:33.869Z,15.27
2023-03-25T03:32:09.501Z,31.80
2023-03-25T03:34:45.308Z,17.38
2023-03-25T03:37:19.941Z,19.55
2023-03-25T03:39:52.274Z,17.27
2023-03-25T03:42:31.420Z,18.42
2023-03-25T03:45:07.387Z,23.02
2023-03-25T03:47:43.356Z,16.90
2023-03-25T03:50:18.772Z,25.40
2023-03-25T03:52:55.595Z,17.23
2023-03-25T03:55:30.742Z,22.63
2023-03-25T03:58:09.907Z,17.55
2023-03-25T04:00:47.338Z,14.77
2023-03-25T04:03:24.941Z,21.35
2023-03-25T04:06:07.322Z,18.15
2023-03-25T04:08:44.823Z,22.92
2023-03-25T04:11:22.879Z,21.08
2023-03-25T04:14:00.759Z,19.83
2023-03-25T04:16:35.845Z,19.50
2023-03-25T04:19:07.428Z,14.25
2023-03-25T04:21:38.344Z,18.42
2023-03-25T04:24:09.656Z,18.00
2023-03-25T04:26:40.712Z,21.38
2023-03-25T04:29:15.057Z,15.40
2023-03-25T04:31:46.854Z,16.75
2023-03-25T04:34:17.995Z,19.27
2023-03-25T04:36:50.552Z,17.83
2023-03-25T04:39:22.885Z,17.95
2023-03-25T04:41:54.860Z,14.07
2023-03-25T04:44:28.971Z,21.33
2023-03-25T04:47:00.137Z,16.83
2023-03-25T04:49:31.380Z,13.77
2023-03-25T04:52:04.577Z,15.55
2023-03-25T04:54:36.038Z,13.85
2023-03-25T04:57:09.015Z,25.02
2023-03-25T04:59:42.506Z,18.38
2023-03-25T05:02:15.734Z,19.50
2023-03-25T05:04:48.008Z,18.58
2023-03-25T05:07:19.381Z,16.73
2023-03-25T05:09:50.240Z,19.35
2023-03-25T05:12:21.784Z,18.60
2023-03-25T05:14:55.365Z,14.07
2023-03-25T05:17:26.610Z,21.27
2023-03-25T05:19:57.562Z,14.95
2023-03-25T05:22:28.496Z,16.35
2023-03-25T05:24:59.418Z,16.85
2023-03-25T05:27:30.640Z,17.65
2023-03-25T05:30:04.409Z,13.25
2023-03-25T05:32:35.488Z,13.68
2023-03-25T05:35:07.583Z,19.48
2023-03-25T05:37:38.569Z,19.55
2023-03-25T05:40:15.549Z,16.67
2023-03-25T05:42:50.992Z,20.20
2023-03-25T05:45:25.202Z,21.80
2023-03-25T05:47:56.176Z,21.58
2023-03-25T05:50:28.228Z,17.95
2023-03-25T05:53:00.258Z,13.60
2023-03-25T05:55:34.332Z,23.98
2023-03-25T05:58:10.176Z,17.88
2023-03-25T06:00:43.790Z,15.75
2023-03-25T06:03:14.300Z,27.63
2023-03-25T06:05:44.796Z,22.08
2023-03-25T06:08:15.254Z,18.48
2023-03-25T06:10:46.238Z,21.63
2023-03-25T06:13:16.685Z,21.08
2023-03-25T06:15:50.100Z,25.88
2023-03-25T06:18:22.852Z,22.40
2023-03-25T06:20:54.887Z,16.40
2023-03-25T06:23:26.651Z,13.07
2023-03-25T06:25:58.852Z,18.55
2023-03-25T06:28:29.410Z,20.92
2023-03-25T06:31:03.557Z,20.33
2023-03-25T06:33:43.047Z,17.65
2023-03-25T06:36:15.667Z,18.02
2023-03-25T06:38:46.070Z,18.33
2023-03-25T06:41:20.930Z,18.25
2023-03-25T06:44:00.866Z,14.63
2023-03-25T06:46:34.009Z,23.02
2023-03-25T06:49:17.902Z,21.53
2023-03-25T06:51:48.515Z,12.88
2023-03-25T06:54:18.966Z,14.40
2023-03-25T06:56:49.538Z,29.30
2023-03-25T06:59:19.910Z,19.88
2023-03-25T07:01:52.965Z,16.42
2023-03-25T07:04:24.078Z,19.77
2023-03-25T07:06:57.332Z,17.65
2023-03-25T07:09:28.307Z,19.30
2023-03-25T07:11:58.971Z,17.42
2023-03-25T07:14:29.482Z,18.70
2023-03-25T07:17:02.509Z,19.30
2023-03-25T07:19:33.025Z,17.15
2023-03-25T07:22:03.491Z,24.92
2023-03-25T07:24:33.856Z,22.70
2023-03-25T07:27:04.331Z,17.63
2023-03-25T07:29:36.645Z,16.58
2023-03-25T07:32:10.474Z,14.45
2023-03-25T07:34:41.388Z,20.52
2023-03-25T07:37:11.824Z,18.05
2023-03-25T07:39:42.482Z,15.30
2023-03-25T07:42:12.898Z,17.38
2023-03-25T07:45:02.100Z,16.00
2023-03-25T07:47:36.577Z,15.93
2023-03-25T07:50:07.749Z,17.83
2023-03-25T07:52:38.718Z,18.10
2023-03-25T07:55:10.724Z,13.00
2023-03-25T07:57:41.647Z,14.73
2023-03-25T08:00:13.848Z,14.70
2023-03-25T08:02:46.977Z,15.75
2023-03-25T08:05:21.296Z,13.85
2023-03-25T08:07:51.784Z,18.42
2023-03-25T08:10:22.993Z,16.73
2023-03-25T08:12:56.278Z,16.50
2023-03-25T08:15:27.132Z,12.52
2023-03-25T08:18:03.530Z,16.40
2023-03-25T08:20:33.999Z,16.85
2023-03-25T08:23:10.692Z,12.48
2023-03-25T08:25:42.939Z,15.35
2023-03-25T08:28:18.538Z,18.42
2023-03-25T08:30:49.569Z,19.55
2023-03-25T08:33:27.788Z,17.35
2023-03-25T08:36:01.167Z,12.70
2023-03-25T08:38:34.684Z,16.95
2023-03-25T08:41:06.298Z,14.50
2023-03-25T08:43:36.746Z,12.73
2023-03-25T08:46:07.442Z,18.27
2023-03-25T08:48:41.180Z,21.45
2023-03-25T08:51:11.787Z,18.40
2023-03-25T08:53:42.328Z,23.00
2023-03-25T08:56:13.947Z,20.15
2023-03-25T08:58:44.578Z,16.98
2023-03-25T09:01:15.137Z,19.67
2023-03-25T09:03:48.141Z,15.27
2023-03-25T09:06:18.694Z,23.52
2023-03-25T09:08:50.355Z,19.05
2023-03-25T09:11:34.030Z,17.65
2023-03-25T09:14:07.466Z,15.63
2023-03-25T09:16:38.000Z,26.95
2023-03-25T09:19:12.967Z,16.83
2023-03-25T09:21:43.412Z,20.08
2023-03-25T09:24:14.089Z,24.52
2023-03-25T09:26:44.594Z,17.83
2023-03-25T09:29:20.282Z,23.90
2023-03-25T09:31:50.710Z,18.55
2023-03-25T09:34:23.792Z,23.33
2023-03-25T09:36:54.426Z,19.67
2023-03-25T09:39:25.248Z,22.60
2023-03-25T09:42:10.670Z,25.48
2023-03-25T09:44:55.300Z,26.65
2023-03-25T09:47:27.775Z,23.13
2023-03-25T09:50:05.697Z,19.20
2023-03-25T09:52:44.894Z,20.67
2023-03-25T09:55:21.178Z,26.15
2023-03-25T09:57:55.324Z,23.00
2023-03-25T10:00:27.735Z,14.88
2023-03-25T10:03:14.199Z,22.58
2023-03-25T10:06:13.801Z,21.27
2023-03-25T10:09:05.092Z,17.45
2023-03-25T10:11:47.409Z,22.05
2023-03-25T10:14:24.796Z,19.02
2023-03-25T10:17:08.355Z,13.98
2023-03-25T10:19:54.988Z,20.90
2023-03-25T10:22:39.565Z,20.88
2023-03-25T10:25:22.014Z,20.48
2023-03-25T10:27:54.951Z,22.60
2023-03-25T10:30:28.283Z,26.45
2023-03-25T10:33:02.340Z,24.77
2023-03-25T10:35:34.656Z,21.58
2023-03-25T10:38:21.217Z,20.85
2023-03-25T10:41:12.038Z,20.17
2023-03-25T10:43:44.454Z,17.70
2023-03-25T10:46:21.282Z,19.58
2023-03-25T10:48:53.406Z,23.27
2023-03-25T10:51:27.534Z,22.58
2023-03-25T10:54:02.612Z,23.77
2023-03-25T10:56:38.410Z,19.55
2023-03-25T10:59:18.912Z,17.45
2023-03-25T11:01:50.838Z,19.92
2023-03-25T11:04:24.443Z,16.08
2023-03-25T11:07:00.694Z,25.38
2023-03-25T11:09:37.412Z,18.98
2023-03-25T11:12:10.306Z,20.55
2023-03-25T11:14:42.746Z,15.73
2023-03-25T11:17:18.857Z,18.98
2023-03-25T11:19:56.306Z,15.45
2023-03-25T11:22:31.099Z,29.60
2023-03-25T11:25:07.601Z,24.67
2023-03-25T11:27:49.879Z,22.60
2023-03-25T11:30:22.865Z,14.98
2023-03-25T11:33:01.260Z,18.63
2023-03-25T11:35:34.596Z,14.23
2023-03-25T11:38:16.979Z,13.52
2023-03-25T11:40:58.174Z,18.85
2023-03-25T11:43:32.813Z,25.75
2023-03-25T11:46:11.441Z,12.27
2023-03-25T11:48:45.031Z,18.42
2023-03-25T11:51:17.837Z,15.48
2023-03-25T11:53:49.916Z,22.20
2023-03-25T11:56:27.081Z,20.92
2023-03-25T11:59:01.479Z,23.15
2023-03-25T12:01:49.200Z,15.35
2023-03-25T12:07:00.920Z,16.90
2023-03-25T12:09:33.099Z,16.92
2023-03-25T12:12:43.466Z,13.30
2023-03-25T12:15:24.074Z,18.48
2023-03-25T12:18:04.970Z,16.00
2023-03-25T12:20:41.156Z,23.98
2023-03-25T12:23:23.611Z,17.98
2023-03-25T12:26:02.823Z,21.15
2023-03-25T12:29:07.321Z,16.75
2023-03-25T12:31:47.026Z,19.75
2023-03-25T12:34:27.579Z,19.77
2023-03-25T12:37:05.920Z,16.98
2023-03-25T12:39:52.437Z,19.02
2023-03-25T12:42:33.971Z,16.50
2023-03-25T12:45:31.629Z,15.80
2023-03-25T12:48:13.560Z,15.77
2023-03-25T12:50:56.055Z,14.23
2023-03-25T12:53:39.653Z,17.17
2023-03-25T12:56:33.885Z,12.57
2023-03-25T12:59:26.431Z,10.30
2023-03-25T13:02:11.448Z,16.88
2023-03-25T13:04:59.266Z,16.15
2023-03-25T13:07:35.268Z,19.52
2023-03-25T13:10:16.086Z,22.92
2023-03-25T13:12:52.446Z,20.10
2023-03-25T13:15:27.989Z,23.38
2023-03-25T13:18:04.983Z,18.73
2023-03-25T13:23:11.881Z,18.20
2023-03-25T13:25:47.819Z,26.88
2023-03-25T13:28:25.767Z,20.50
2023-03-25T13:30:57.619Z,19.83
2023-03-25T13:33:35.417Z,19.38
2023-03-25T13:36:14.508Z,19.92
2023-03-25T13:38:49.677Z,22.58
2023-03-25T13:41:26.785Z,18.70
2023-03-25T13:44:05.371Z,19.85
2023-03-25T13:46:40.694Z,22.30
2023-03-25T13:49:19.344Z,21.70
2023-03-25T13:51:50.010Z,19.83
2023-03-25T13:54:25.690Z,23.85
2023-03-25T13:57:31.296Z,16.77
2023-03-25T14:00:36.526Z,18.05
2023-03-25T14:03:30.851Z,22.85
2023-03-25T14:06:38.690Z,13.18
2023-03-25T14:09:37.966Z,12.23
2023-03-25T14:12:13.475Z,16.58
2023-03-25T14:14:47.693Z,18.55
2023-03-25T14:17:20.590Z,13.13
2023-03-25T14:19:57.703Z,14.23
2023-03-25T14:22:32.806Z,12.18
2023-03-25T14:25:03.661Z,11.82
2023-03-25T14:27:36.274Z,11.57
2023-03-25T14:30:09.891Z,10.85
2023-03-25T14:32:44.394Z,12.98
2023-03-25T14:35:47.376Z,14.50
2023-03-25T14:38:56.603Z,16.92
2023-03-25T14:42:02.034Z,18.60
2023-03-25T14:44:33.764Z,8.85
2023-03-25T14:47:25.971Z,17.40
2023-03-25T14:50:01.700Z,8.55
2023-03-25T14:52:35.289Z,14.75
2023-03-25T14:55:12.367Z,16.17
2023-03-25T14:57:45.682Z,18.25
2023-03-25T15:00:29.444Z,14.68
2023-03-25T15:03:05.270Z,18.52
2023-03-25T15:05:38.454Z,14.70
2023-03-25T15:08:17.942Z,15.80
2023-03-25T15:10:54.382Z,13.23
2023-03-25T15:13:30.414Z,16.65
2023-03-25T15:16:04.405Z,16.23
2023-03-25T15:19:04.848Z,11.82
2023-03-25T15:21:38.008Z,18.17
2023-03-25T15:24:11.979Z,15.90
2023-03-25T15:26:47.143Z,11.60
2023-03-25T15:29:45.201Z,11.07
2023-03-25T15:35:48.668Z,16.52
2023-03-25T15:38:55.144Z,15.30
2023-03-25T15:41:39.312Z,11.52
2023-03-25T15:44:36.992Z,21.17
2023-03-25T15:47:37.027Z,23.00
2023-03-25T15:50:25.063Z,15.82
2023-03-25T15:53:39.421Z,15.45
2023-03-25T15:56:15.155Z,19.27
2023-03-25T15:58:54.618Z,18.17
2023-03-25T16:01:31.558Z,15.23
2023-03-25T16:06:36.785Z,19.77
2023-03-25T16:09:09.585Z,18.05
2023-03-25T16:11:45.874Z,22.50
2023-03-25T16:14:18.676Z,13.00
2023-03-25T16:16:56.040Z,16.35
2023-03-25T16:19:29.895Z,17.48
2023-03-25T16:22:08.468Z,21.98
2023-03-25T16:24:39.159Z,17.35
2023-03-25T16:27:14.517Z,16.10
2023-03-25T16:29:53.031Z,13.18
2023-03-25T16:32:28.055Z,13.07
2023-03-25T16:34:58.471Z,16.58
2023-03-25T16:37:34.197Z,17.27
2023-03-25T16:40:11.704Z,16.92
2023-03-25T16:42:42.165Z,21.17
2023-03-25T16:45:18.629Z,13.70
2023-03-25T16:47:52.417Z,19.08
2023-03-25T16:50:24.456Z,14.75
2023-03-25T16:52:56.832Z,14.95
2023-03-25T16:55:34.512Z,18.98
2023-03-25T16:58:05.870Z,17.40
2023-03-25T17:00:45.826Z,18.60
2023-03-25T17:03:21.691Z,18.05
2023-03-25T17:05:59.565Z,19.30
2023-03-25T17:08:31.035Z,13.90
2023-03-25T17:11:02.550Z,22.20
2023-03-25T17:13:39.971Z,16.80
2023-03-25T17:16:11.642Z,16.13
2023-03-25T17:18:44.858Z,20.85
2023-03-25T17:21:26.705Z,20.58
2023-03-25T17:23:58.239Z,19.77
2023-03-25T17:26:31.876Z,18.67
2023-03-25T17:29:04.449Z,14.15
2023-03-25T17:31:38.208Z,18.08
2023-03-25T17:34:14.947Z,15.80
2023-03-25T17:36:48.255Z,15.45
2023-03-25T17:39:22.419Z,19.45
2023-03-25T17:42:00.713Z,16.00
2023-03-25T17:44:36.237Z,18.02
2023-03-25T17:47:06.868Z,14.35
2023-03-25T17:49:39.894Z,17.88
2023-03-25T17:52:14.353Z,14.77
2023-03-25T17:54:44.852Z,14.73
2023-03-25T17:57:19.543Z,18.13
2023-03-25T17:59:51.650Z,19.08
2023-03-25T18:02:22.200Z,18.60
2023-03-25T18:04:55.261Z,23.92
2023-03-25T18:07:25.799Z,16.40
2023-03-25T18:09:56.167Z,17.58
2023-03-25T18:12:27.282Z,18.08
2023-03-25T18:14:57.861Z,16.48
2023-03-25T18:17:28.500Z,14.40
2023-03-25T18:20:02.004Z,16.85
2023-03-25T18:22:35.536Z,23.60
2023-03-25T18:25:06.008Z,19.05
2023-03-25T18:27:43.354Z,15.70
2023-03-25T18:30:21.958Z,12.85
2023-03-25T18:32:52.671Z,16.13
2023-03-25T18:35:26.586Z,14.73
2023-03-25T18:37:57.603Z,16.05
2023-03-25T18:40:29.724Z,18.70
2023-03-25T18:43:00.862Z,17.60
2023-03-25T18:45:31.368Z,14.95
2023-03-25T18:48:01.921Z,14.70
2023-03-25T18:50:37.068Z,15.15
2023-03-25T18:53:08.666Z,14.93
2023-03-25T18:55:40.290Z,16.42
2023-03-25T18:58:16.281Z,19.10
2023-03-25T19:00:47.711Z,14.70
2023-03-25T19:03:18.247Z,12.70
2023-03-25T19:05:51.337Z,22.75
2023-03-25T19:08:23.653Z,14.93
2023-03-25T19:10:59.558Z,20.13
2023-03-25T19:13:35.408Z,16.00
2023-03-25T19:16:05.992Z,18.73
2023-03-25T19:18:37.058Z,31.50
2023-03-25T19:21:10.438Z,20.70
2023-03-25T19:23:42.020Z,14.48
2023-03-25T19:26:12.876Z,13.10
2023-03-25T19:28:44.062Z,12.60
2023-03-25T19:31:16.707Z,17.55
2023-03-25T19:33:47.542Z,12.90
2023-03-25T19:36:23.264Z,8.63
2023-03-25T19:38:55.231Z,9.38
2023-03-25T19:41:25.764Z,10.98
2023-03-25T19:43:56.301Z,14.43
2023-03-25T19:46:29.360Z,11.23
2023-03-25T19:49:00.175Z,10.95
2023-03-25T19:51:33.266Z,9.13
2023-03-25T19:54:03.723Z,7.40
2023-03-25T19:56:34.249Z,9.02
2023-03-25T19:59:04.767Z,6.75
2023-03-25T20:01:35.726Z,10.55
2023-03-25T20:04:06.983Z,7.32
2023-03-25T20:06:40.091Z,10.55
2023-03-25T20:09:10.890Z,11.20
2023-03-25T20:11:41.656Z,11.50
2023-03-25T20:14:12.243Z,6.68
2023-03-25T20:16:42.762Z,7.63
2023-03-25T20:19:13.651Z,9.88
2023-03-25T20:21:46.803Z,11.23
2023-03-25T20:24:17.250Z,8.88
2023-03-25T20:26:47.961Z,7.55
2023-03-25T20:29:19.835Z,5.10
2023-03-25T20:31:50.394Z,9.68
2023-03-25T20:34:20.890Z,8.43
2023-03-25T20:36:56.169Z,8.23
2023-03-25T20:39:26.956Z,8.50
2023-03-25T20:41:57.903Z,7.53
2023-03-25T20:44:28.495Z,8.93
2023-03-25T20:46:59.023Z,8.25
2023-03-25T20:49:29.941Z,9.52
2023-03-25T20:52:02.984Z,9.63
2023-03-25T20:54:33.533Z,7.90
2023-03-25T20:57:04.069Z,9.50
2023-03-25T20:59:34.703Z,8.18
2023-03-25T21:02:05.652Z,10.45
2023-03-25T21:04:37.161Z,6.30
2023-03-25T21:07:10.760Z,8.10
2023-03-25T21:09:41.963Z,4.13
2023-03-25T21:12:12.963Z,8.60
2023-03-25T21:14:44.169Z,9.00
2023-03-25T21:17:15.323Z,5.72
2023-03-25T21:19:46.679Z,5.43
2023-03-25T21:22:20.656Z,7.57
2023-03-25T21:24:51.888Z,4.95
2023-03-25T21:27:23.100Z,3.90
2023-03-25T21:30:13.388Z,4.63
2023-03-25T21:32:44.857Z,4.60
2023-03-25T21:35:16.795Z,5.45
2023-03-25T21:37:52.080Z,5.72
2023-03-25T21:40:23.814Z,4.25
2023-03-25T21:42:55.573Z,4.53
2023-03-25T21:45:26.543Z,3.35
2023-03-25T21:47:57.490Z,4.80
2023-03-25T21:50:30.626Z,3.60
2023-03-25T21:53:08.225Z,2.85
2023-03-25T21:55:40.720Z,1.63
2023-03-25T21:58:13.658Z,5.00
2023-03-25T22:00:44.802Z,3.40
2023-03-25T22:03:19.287Z,5.28
2023-03-25T22:05:50.208Z,4.95
2023-03-25T22:08:23.906Z,4.75
2023-03-25T22:10:54.932Z,3.47
2023-03-25T22:13:26.006Z,4.53
2023-03-25T22:15:57.050Z,2.50
2023-03-25T22:18:28.471Z,4.28
2023-03-25T22:21:09.992Z,5.88
2023-03-25T22:23:45.590Z,4.55
2023-03-25T22:26:18.079Z,4.32
2023-03-25T22:28:51.681Z,6.82
2023-03-25T22:31:26.326Z,4.05
2023-03-25T22:34:03.038Z,5.93
2023-03-25T22:36:35.163Z,5.20
2023-03-25T22:39:10.008Z,3.53
2023-03-25T22:41:41.591Z,4.80
2023-03-25T22:44:12.756Z,2.50
2023-03-25T22:46:44.316Z,5.75
2023-03-25T22:49:15.741Z,7.00
2023-03-25T22:51:47.028Z,3.53
2023-03-25T22:54:20.909Z,4.70
2023-03-25T22:56:52.112Z,6.32
2023-03-25T22:59:23.622Z,9.55
2023-03-25T23:01:54.664Z,3.22
2023-03-25T23:04:25.849Z,6.32
2023-03-25T23:07:07.330Z,2.92
2023-03-25T23:09:44.330Z,3.85
2023-03-25T23:12:17.285Z,4.28
2023-03-25T23:14:53.038Z,3.47
2023-03-25T23:17:24.494Z,8.02
2023-03-25T23:19:56.165Z,2.40
2023-03-25T23:22:27.733Z,4.97
2023-03-25T23:25:04.404Z,6.70
2023-03-25T23:27:36.305Z,4.45
2023-03-25T23:30:08.774Z,6.32
2023-03-25T23:32:42.004Z,5.05
2023-03-25T23:35:13.514Z,7.03
2023-03-25T23:37:45.953Z,4.35
2023-03-25T23:40:21.045Z,6.63
2023-03-25T23:42:52.021Z,9.77
2023-03-25T23:45:30.125Z,6.50
2023-03-25T23:48:01.781Z,8.45
2023-03-25T23:50:32.976Z,9.07
2023-03-25T23:53:04.392Z,13.60
2023-03-25T23:55:38.066Z,10.57
2023-03-25T23:58:09.055Z,10.35
